createdAt,value
2023-01-18T00:01:13.993Z,57.60
2023-01-18T00:03:42.275Z,57.40
2023-01-18T00:06:10.871Z,57.40
2023-01-18T00:08:39.146Z,57.40
2023-01-18T00:11:11.622Z,57.50
2023-01-18T00:13:39.216Z,57.10
2023-01-18T00:16:10.223Z,57.30
2023-01-18T00:18:37.297Z,57.30
2023-01-18T00:21:09.718Z,57.30
2023-01-18T00:23:37.612Z,57.40
2023-01-18T00:26:07.406Z,57.30
2023-01-18T00:28:34.519Z,57.40
2023-01-18T00:31:01.610Z,57.40
2023-01-18T00:33:28.545Z,57.10
2023-01-18T00:35:59.548Z,57.60
2023-01-18T00:38:26.960Z,57.50
2023-01-18T00:40:54.065Z,57.40
2023-01-18T00:43:39.348Z,57.30
2023-01-18T00:46:06.396Z,57.20
2023-01-18T00:48:33.673Z,57.10
2023-01-18T00:51:00.712Z,57.30
2023-01-18T00:53:28.343Z,57.30
2023-01-18T00:55:55.646Z,57.20
2023-01-18T00:58:22.678Z,57.50
2023-01-18T01:00:52.896Z,57.60
2023-01-18T01:03:23.069Z,57.30
2023-01-18T01:06:08.423Z,57.50
2023-01-18T01:08:35.375Z,57.40
2023-01-18T01:11:09.446Z,57.60
2023-01-18T01:13:56.269Z,57.40
2023-01-18T01:16:42.802Z,57.60
2023-01-18T01:19:28.399Z,57.30
2023-01-18T01:22:13.717Z,57.60
2023-01-18T01:24:59.264Z,57.40
2023-01-18T01:27:26.546Z,57.40
2023-01-18T01:29:54.361Z,57.60
2023-01-18T01:32:21.305Z,58.00
2023-01-18T01:34:48.243Z,58.10
2023-01-18T01:37:15.171Z,58.30
2023-01-18T01:39:42.089Z,58.20
2023-01-18T01:42:11.936Z,57.80
2023-01-18T01:44:52.176Z,58.40
2023-01-18T01:47:28.564Z,58.20
2023-01-18T01:50:01.354Z,58.00
2023-01-18T01:52:34.132Z,58.30
2023-01-18T01:55:11.099Z,58.30
2023-01-18T01:57:46.281Z,58.10
2023-01-18T02:00:19.653Z,58.40
2023-01-18T02:02:50.937Z,58.40
2023-01-18T02:05:18.345Z,58.40
2023-01-18T02:07:45.771Z,58.40
2023-01-18T02:10:12.922Z,58.30
2023-01-18T02:12:43.088Z,57.90
2023-01-18T02:15:10.825Z,58.30
2023-01-18T02:17:43.615Z,58.30
2023-01-18T02:20:24.371Z,58.50
2023-01-18T02:23:22.740Z,58.40
2023-01-18T02:25:58.995Z,58.30
2023-01-18T02:28:37.632Z,58.60
2023-01-18T02:31:20.635Z,58.30
2023-01-18T02:34:03.139Z,58.20
2023-01-18T02:36:33.514Z,58.30
2023-01-18T02:39:10.838Z,58.10
2023-01-18T02:42:11.860Z,58.30
2023-01-18T02:45:02.111Z,58.40
2023-01-18T02:47:29.970Z,58.60
2023-01-18T02:49:57.781Z,58.30
2023-01-18T02:52:54.146Z,58.30
2023-01-18T02:55:51.299Z,58.10
2023-01-18T02:58:34.602Z,57.90
2023-01-18T03:01:36.450Z,58.20
2023-01-18T03:04:14.557Z,58.30
2023-01-18T03:06:45.266Z,57.90
2023-01-18T03:09:21.251Z,58.30
2023-01-18T03:12:00.543Z,58.60
2023-01-18T03:14:39.216Z,57.90
2023-01-18T03:17:20.222Z,58.10
2023-01-18T03:20:07.731Z,58.10
2023-01-18T03:23:03.468Z,58.30
2023-01-18T03:25:41.242Z,58.10
2023-01-18T03:28:39.571Z,58.00
2023-01-18T03:31:30.011Z,58.20
2023-01-18T03:34:09.870Z,58.30
2023-01-18T03:36:41.224Z,58.00
2023-01-18T03:39:16.199Z,57.90
2023-01-18T03:41:48.472Z,58.20
2023-01-18T03:44:33.345Z,58.40
2023-01-18T03:47:00.478Z,58.30
2023-01-18T03:49:27.820Z,58.10
2023-01-18T03:52:15.688Z,58.10
2023-01-18T03:55:05.001Z,57.70
2023-01-18T03:57:55.081Z,57.80
2023-01-18T04:00:22.338Z,57.60
2023-01-18T04:02:50.801Z,58.30
2023-01-18T04:05:18.436Z,58.10
2023-01-18T04:07:45.509Z,58.10
2023-01-18T04:10:12.504Z,57.90
2023-01-18T04:12:39.721Z,58.00
2023-01-18T04:15:07.176Z,58.00
2023-01-18T04:17:34.146Z,57.90
2023-01-18T04:20:01.163Z,58.00
2023-01-18T04:22:28.159Z,58.30
2023-01-18T04:24:55.104Z,58.20
2023-01-18T04:27:24.284Z,57.90
2023-01-18T04:29:51.730Z,58.00
2023-01-18T04:32:19.015Z,57.70
2023-01-18T04:34:45.946Z,57.70
2023-01-18T04:37:12.867Z,58.10
2023-01-18T04:39:39.876Z,58.20
2023-01-18T04:42:07.048Z,58.20
2023-01-18T04:44:34.013Z,58.00
2023-01-18T04:47:00.931Z,58.00
2023-01-18T04:49:28.088Z,58.50
2023-01-18T04:51:55.072Z,58.50
2023-01-18T04:54:22.090Z,58.50
2023-01-18T04:56:49.055Z,58.10
2023-01-18T04:59:16.759Z,58.00
2023-01-18T05:01:44.994Z,57.60
2023-01-18T05:04:12.046Z,58.00
2023-01-18T05:06:39.073Z,58.20
2023-01-18T05:09:06.062Z,57.80
2023-01-18T05:11:33.175Z,58.20
2023-01-18T05:14:00.107Z,58.30
2023-01-18T05:16:27.333Z,58.20
2023-01-18T05:18:54.469Z,58.00
2023-01-18T05:21:21.565Z,57.70
2023-01-18T05:23:48.695Z,57.60
2023-01-18T05:26:21.540Z,57.90
2023-01-18T05:28:49.711Z,58.00
2023-01-18T05:31:21.075Z,57.90
2023-01-18T05:33:48.430Z,57.50
2023-01-18T05:36:15.409Z,57.70
2023-01-18T05:38:42.431Z,58.10
2023-01-18T05:41:09.401Z,57.90
2023-01-18T05:43:38.308Z,57.50
2023-01-18T05:46:05.943Z,58.30
2023-01-18T05:48:33.023Z,58.50
2023-01-18T05:51:00.054Z,58.50
2023-01-18T05:53:27.024Z,58.70
2023-01-18T05:55:58.910Z,58.50
2023-01-18T05:58:26.845Z,58.40
2023-01-18T06:00:54.693Z,58.80
2023-01-18T06:03:22.837Z,58.60
2023-01-18T06:05:51.540Z,58.60
2023-01-18T06:08:19.530Z,58.70
2023-01-18T06:10:58.801Z,59.00
2023-01-18T06:13:28.583Z,58.90
2023-01-18T06:15:59.618Z,58.60
2023-01-18T06:18:28.902Z,59.10
2023-01-18T06:20:59.081Z,59.00
2023-01-18T06:23:29.085Z,59.50
2023-01-18T06:25:56.795Z,59.40
2023-01-18T06:28:24.076Z,58.60
2023-01-18T06:30:56.466Z,58.40
2023-01-18T06:33:24.439Z,57.80
2023-01-18T06:35:52.224Z,58.30
2023-01-18T06:38:20.700Z,58.20
2023-01-18T06:40:47.680Z,58.70
2023-01-18T06:43:15.973Z,58.10
2023-01-18T06:45:42.951Z,58.10
2023-01-18T06:48:09.970Z,59.00
2023-01-18T06:50:36.923Z,58.20
2023-01-18T06:53:04.072Z,58.40
2023-01-18T06:55:31.030Z,58.10
2023-01-18T06:57:58.027Z,58.00
2023-01-18T07:00:25.091Z,58.00
2023-01-18T07:02:53.116Z,57.50
2023-01-18T07:05:20.145Z,58.20
2023-01-18T07:07:47.136Z,58.00
2023-01-18T07:10:17.316Z,58.90
2023-01-18T07:12:51.068Z,59.20
2023-01-18T07:15:22.700Z,58.70
2023-01-18T07:17:52.728Z,59.00
2023-01-18T07:20:19.975Z,58.80
2023-01-18T07:22:51.626Z,58.30
2023-01-18T07:25:20.643Z,58.50
2023-01-18T07:27:49.032Z,58.20
2023-01-18T07:30:16.711Z,58.50
2023-01-18T07:32:52.050Z,58.30
2023-01-18T07:35:23.883Z,58.70
2023-01-18T07:37:53.816Z,58.20
2023-01-18T07:40:21.905Z,58.10
2023-01-18T07:42:50.009Z,58.50
2023-01-18T07:45:16.997Z,57.90
2023-01-18T07:47:46.239Z,58.40
2023-01-18T07:50:14.406Z,58.20
2023-01-18T07:52:41.399Z,58.20
2023-01-18T07:55:09.139Z,57.80
2023-01-18T07:57:36.118Z,58.20
2023-01-18T08:00:03.668Z,57.60
2023-01-18T08:02:39.659Z,57.30
2023-01-18T08:05:09.978Z,57.60
2023-01-18T08:07:36.965Z,57.70
2023-01-18T08:10:04.174Z,57.70
2023-01-18T08:12:31.172Z,58.00
2023-01-18T08:14:58.128Z,57.70
2023-01-18T08:17:25.397Z,57.70
2023-01-18T08:19:52.369Z,58.00
2023-01-18T08:22:19.586Z,57.30
2023-01-18T08:24:46.569Z,57.50
2023-01-18T08:27:13.527Z,57.60
2023-01-18T08:29:40.463Z,57.70
2023-01-18T08:32:07.453Z,57.60
2023-01-18T08:34:34.477Z,57.80
2023-01-18T08:37:01.469Z,57.50
2023-01-18T08:39:28.521Z,56.90
2023-01-18T08:41:55.764Z,57.50
2023-01-18T08:44:22.789Z,57.80
2023-01-18T08:46:50.053Z,57.60
2023-01-18T08:49:17.032Z,57.60
2023-01-18T08:51:43.949Z,58.00
2023-01-18T08:54:10.884Z,58.20
2023-01-18T08:56:38.011Z,57.20
2023-01-18T08:59:08.471Z,58.10
2023-01-18T09:01:35.605Z,57.60
2023-01-18T09:04:02.568Z,57.40
2023-01-18T09:06:32.210Z,57.40
2023-01-18T09:08:59.957Z,56.60
2023-01-18T09:11:27.301Z,57.30
2023-01-18T09:14:00.711Z,57.00
2023-01-18T09:16:29.425Z,56.90
2023-01-18T09:18:56.682Z,56.40
2023-01-18T09:21:24.173Z,56.40
2023-01-18T09:23:51.299Z,56.20
2023-01-18T09:26:20.689Z,56.10
2023-01-18T09:28:51.089Z,56.40
2023-01-18T09:31:19.697Z,56.30
2023-01-18T09:33:53.318Z,56.00
2023-01-18T09:36:23.961Z,56.30
2023-01-18T09:38:50.984Z,56.40
2023-01-18T09:41:26.814Z,56.20
2023-01-18T09:44:34.417Z,55.50
2023-01-18T09:47:23.780Z,55.70
2023-01-18T09:49:58.132Z,55.90
2023-01-18T09:52:40.943Z,55.80
2023-01-18T09:55:27.659Z,56.00
2023-01-18T09:58:13.454Z,56.30
2023-01-18T10:00:45.884Z,55.20
2023-01-18T10:03:19.643Z,56.10
2023-01-18T10:06:10.591Z,55.80
2023-01-18T10:08:47.142Z,55.80
2023-01-18T10:11:47.485Z,55.40
2023-01-18T10:14:33.255Z,55.60
2023-01-18T10:17:04.629Z,55.40
2023-01-18T10:19:33.380Z,56.10
2023-01-18T10:22:14.684Z,55.10
2023-01-18T10:24:53.953Z,54.90
2023-01-18T10:27:36.709Z,55.00
2023-01-18T10:30:11.148Z,53.60
2023-01-18T10:32:41.974Z,55.10
2023-01-18T10:35:37.308Z,54.30
2023-01-18T10:38:08.719Z,53.30
2023-01-18T10:40:38.853Z,53.70
2023-01-18T10:43:12.608Z,53.70
2023-01-18T10:45:40.594Z,53.20
2023-01-18T10:48:16.798Z,52.50
2023-01-18T10:50:50.515Z,53.10
2023-01-18T10:53:29.429Z,54.00
2023-01-18T10:56:04.276Z,51.70
2023-01-18T10:58:37.828Z,52.80
2023-01-18T11:01:05.163Z,52.60
2023-01-18T11:03:39.635Z,52.10
2023-01-18T11:06:08.154Z,53.80
2023-01-18T11:08:36.407Z,53.90
2023-01-18T11:11:12.598Z,52.80
2023-01-18T11:13:39.550Z,51.20
2023-01-18T11:16:18.585Z,52.40
2023-01-18T11:19:02.193Z,51.10
2023-01-18T11:21:43.464Z,50.40
2023-01-18T11:24:37.913Z,51.20
2023-01-18T11:27:13.206Z,51.20
2023-01-18T11:29:46.216Z,52.20
2023-01-18T11:32:28.678Z,51.10
2023-01-18T11:35:00.100Z,51.30
2023-01-18T11:37:30.226Z,50.50
2023-01-18T11:39:57.523Z,50.70
2023-01-18T11:42:36.599Z,52.10
2023-01-18T11:45:22.777Z,50.80
2023-01-18T11:47:55.718Z,51.40
2023-01-18T11:50:43.262Z,49.50
2023-01-18T11:53:37.054Z,51.30
2023-01-18T11:56:07.077Z,49.00
2023-01-18T11:58:36.536Z,49.60
2023-01-18T12:01:43.476Z,49.20
2023-01-18T12:04:16.300Z,49.10
2023-01-18T12:06:46.218Z,49.50
2023-01-18T12:09:34.441Z,50.50
2023-01-18T12:12:20.410Z,50.00
2023-01-18T12:14:53.401Z,50.10
2023-01-18T12:17:46.287Z,49.70
2023-01-18T12:20:35.056Z,49.80
2023-01-18T12:23:14.801Z,48.80
2023-01-18T12:26:13.006Z,50.60
2023-01-18T12:28:54.492Z,49.00
2023-01-18T12:31:21.452Z,48.90
2023-01-18T12:34:07.102Z,50.40
2023-01-18T12:36:52.991Z,48.70
2023-01-18T12:40:03.329Z,49.50
2023-01-18T12:42:47.832Z,49.70
2023-01-18T12:45:38.160Z,48.50
2023-01-18T12:48:26.079Z,47.90
2023-01-18T12:50:56.255Z,50.10
2023-01-18T12:53:50.545Z,49.60
2023-01-18T12:56:35.572Z,49.30
2023-01-18T12:59:10.389Z,48.70
2023-01-18T13:01:45.885Z,48.90
2023-01-18T13:04:46.798Z,50.50
2023-01-18T13:07:21.831Z,49.70
2023-01-18T13:09:53.064Z,51.20
2023-01-18T13:12:20.788Z,49.30
2023-01-18T13:15:03.760Z,49.60
2023-01-18T13:17:39.345Z,49.90
2023-01-18T13:20:13.199Z,49.80
2023-01-18T13:23:10.689Z,49.10
2023-01-18T13:26:01.906Z,48.80
2023-01-18T13:28:29.090Z,52.10
2023-01-18T13:31:03.258Z,48.70
2023-01-18T13:33:34.723Z,48.90
2023-01-18T13:36:11.781Z,49.70
2023-01-18T13:38:53.823Z,48.40
2023-01-18T13:41:26.444Z,48.60
2023-01-18T13:44:01.333Z,49.50
2023-01-18T13:46:29.744Z,48.80
2023-01-18T13:48:57.580Z,48.50
2023-01-18T13:51:36.857Z,49.40
2023-01-18T13:54:04.410Z,49.00
2023-01-18T13:56:36.683Z,47.50
2023-01-18T13:59:13.210Z,49.60
2023-01-18T14:01:44.112Z,49.40
2023-01-18T14:04:22.895Z,48.20
2023-01-18T14:06:51.288Z,49.20
2023-01-18T14:09:29.416Z,48.10
2023-01-18T14:11:58.026Z,50.30
2023-01-18T14:14:30.327Z,49.80
2023-01-18T14:17:00.153Z,49.30
2023-01-18T14:19:29.144Z,48.60
2023-01-18T14:22:17.709Z,48.40
2023-01-18T14:24:55.220Z,49.30
2023-01-18T14:27:25.464Z,49.30
2023-01-18T14:30:12.453Z,49.10
2023-01-18T14:32:44.883Z,49.40
2023-01-18T14:35:25.438Z,49.90
2023-01-18T14:38:16.769Z,49.10
2023-01-18T14:40:50.434Z,49.30
2023-01-18T14:43:21.840Z,49.50
2023-01-18T14:46:15.992Z,50.00
2023-01-18T14:48:53.365Z,49.20
2023-01-18T14:51:23.059Z,48.80
2023-01-18T14:53:59.547Z,48.20
2023-01-18T14:56:28.941Z,49.30
2023-01-18T14:59:24.267Z,49.10
2023-01-18T15:01:56.313Z,49.70
2023-01-18T15:04:29.330Z,50.10
2023-01-18T15:07:10.602Z,48.70
2023-01-18T15:09:39.595Z,48.40
2023-01-18T15:12:10.643Z,48.80
2023-01-18T15:14:45.043Z,49.50
2023-01-18T15:17:21.902Z,49.00
2023-01-18T15:19:57.927Z,49.80
2023-01-18T15:22:30.952Z,49.60
2023-01-18T15:25:02.659Z,50.20
2023-01-18T15:27:32.666Z,49.60
2023-01-18T15:30:01.862Z,49.10
2023-01-18T15:32:32.312Z,50.50
2023-01-18T15:35:00.769Z,48.90
2023-01-18T15:37:31.291Z,48.80
2023-01-18T15:39:59.804Z,49.30
2023-01-18T15:42:39.500Z,49.20
2023-01-18T15:45:21.456Z,49.80
2023-01-18T15:47:56.846Z,50.10
2023-01-18T15:50:30.966Z,50.20
2023-01-18T15:53:06.247Z,49.20
2023-01-18T15:55:45.791Z,49.40
2023-01-18T15:58:21.542Z,50.00
2023-01-18T16:00:55.900Z,49.10
2023-01-18T16:03:54.975Z,49.70
2023-01-18T16:06:22.044Z,49.50
2023-01-18T16:09:12.863Z,50.10
2023-01-18T16:11:56.796Z,49.70
2023-01-18T16:14:32.526Z,49.90
2023-01-18T16:17:15.384Z,50.20
2023-01-18T16:19:46.831Z,50.80
2023-01-18T16:22:19.443Z,50.00
2023-01-18T16:25:02.114Z,50.40
2023-01-18T16:27:31.447Z,50.30
2023-01-18T16:29:59.789Z,50.60
2023-01-18T16:32:27.940Z,50.80
2023-01-18T16:35:00.941Z,50.60
2023-01-18T16:37:28.325Z,50.40
2023-01-18T16:39:55.484Z,50.50
2023-01-18T16:42:29.586Z,50.10
2023-01-18T16:45:04.758Z,50.60
2023-01-18T16:47:31.830Z,51.40
2023-01-18T16:49:59.405Z,51.30
2023-01-18T16:52:27.324Z,51.30
2023-01-18T16:54:54.275Z,50.40
2023-01-18T16:57:23.188Z,50.70
2023-01-18T16:59:50.761Z,50.60
2023-01-18T17:02:17.835Z,50.20
2023-01-18T17:04:46.575Z,51.20
2023-01-18T17:07:13.785Z,50.40
2023-01-18T17:09:48.398Z,50.70
2023-01-18T17:12:16.760Z,50.80
2023-01-18T17:14:43.779Z,51.20
2023-01-18T17:17:11.349Z,51.60
2023-01-18T17:19:38.288Z,50.50
2023-01-18T17:22:06.481Z,50.90
2023-01-18T17:24:33.482Z,50.80
2023-01-18T17:27:01.336Z,50.80
2023-01-18T17:29:28.695Z,51.30
2023-01-18T17:31:55.735Z,51.20
2023-01-18T17:34:29.035Z,51.80
2023-01-18T17:37:00.153Z,51.50
2023-01-18T17:39:42.440Z,51.00
2023-01-18T17:42:19.290Z,51.10
2023-01-18T17:44:50.867Z,51.30
2023-01-18T17:47:17.857Z,51.20
2023-01-18T17:49:44.877Z,51.80
2023-01-18T17:52:11.966Z,51.50
2023-01-18T17:54:39.034Z,52.30
2023-01-18T17:57:05.977Z,51.00
2023-01-18T17:59:32.904Z,51.20
2023-01-18T18:01:59.895Z,51.70
2023-01-18T18:04:26.844Z,51.80
2023-01-18T18:06:58.338Z,52.60
2023-01-18T18:09:25.813Z,53.60
2023-01-18T18:11:52.905Z,53.30
2023-01-18T18:14:20.124Z,53.30
2023-01-18T18:16:47.249Z,53.20
2023-01-18T18:19:14.779Z,52.60
2023-01-18T18:21:43.004Z,52.60
2023-01-18T18:24:10.132Z,53.70
2023-01-18T18:26:37.134Z,53.00
2023-01-18T18:29:04.438Z,52.10
2023-01-18T18:31:31.617Z,52.10
2023-01-18T18:33:58.682Z,53.40
2023-01-18T18:36:28.443Z,54.20
2023-01-18T18:38:55.521Z,54.90
2023-01-18T18:41:22.526Z,58.70
2023-01-18T18:43:49.547Z,53.70
2023-01-18T18:46:16.558Z,52.90
2023-01-18T18:48:43.699Z,53.60
2023-01-18T18:51:10.926Z,55.40
2023-01-18T18:53:39.682Z,55.90
2023-01-18T18:56:11.551Z,57.10
2023-01-18T18:58:39.944Z,57.00
2023-01-18T19:01:08.075Z,56.60
2023-01-18T19:03:36.064Z,56.50
2023-01-18T19:06:03.076Z,56.70
2023-01-18T19:08:31.083Z,55.80
2023-01-18T19:10:58.277Z,54.90
2023-01-18T19:13:25.463Z,54.50
2023-01-18T19:15:52.830Z,55.10
2023-01-18T19:18:20.141Z,56.10
2023-01-18T19:20:49.724Z,55.20
2023-01-18T19:23:16.789Z,55.20
2023-01-18T19:25:43.904Z,54.40
2023-01-18T19:28:10.832Z,55.00
2023-01-18T19:30:41.463Z,54.70
2023-01-18T19:33:09.293Z,54.50
2023-01-18T19:35:41.198Z,54.40
2023-01-18T19:38:08.531Z,54.80
2023-01-18T19:40:36.476Z,53.50
2023-01-18T19:43:03.660Z,52.90
2023-01-18T19:45:31.496Z,53.80
2023-01-18T19:48:00.150Z,52.80
2023-01-18T19:50:29.232Z,52.70
2023-01-18T19:52:57.096Z,53.20
2023-01-18T19:55:25.129Z,53.10
2023-01-18T19:57:55.966Z,53.20
2023-01-18T20:00:23.425Z,52.90
2023-01-18T20:02:50.752Z,53.30
2023-01-18T20:05:17.885Z,53.40
2023-01-18T20:07:44.991Z,52.50
2023-01-18T20:10:12.457Z,52.70
2023-01-18T20:12:39.699Z,53.60
2023-01-18T20:15:07.162Z,53.90
2023-01-18T20:17:34.335Z,54.00
2023-01-18T20:20:01.673Z,54.10
2023-01-18T20:22:28.837Z,55.00
2023-01-18T20:24:55.834Z,53.90
2023-01-18T20:27:22.822Z,53.10
2023-01-18T20:29:49.784Z,53.70
2023-01-18T20:32:17.984Z,53.10
2023-01-18T20:34:47.330Z,58.10
2023-01-18T20:37:16.550Z,53.80
2023-01-18T20:39:43.711Z,53.10
2023-01-18T20:42:10.776Z,53.90
2023-01-18T20:44:37.849Z,52.50
2023-01-18T20:47:04.839Z,54.30
2023-01-18T20:49:39.358Z,56.20
2023-01-18T20:52:07.615Z,54.70
2023-01-18T20:54:37.844Z,53.60
2023-01-18T20:57:05.904Z,54.20
2023-01-18T20:59:33.275Z,57.10
2023-01-18T21:02:00.427Z,53.50
2023-01-18T21:04:27.638Z,55.00
2023-01-18T21:06:57.374Z,54.90
2023-01-18T21:09:25.395Z,55.20
2023-01-18T21:11:52.373Z,56.90
2023-01-18T21:14:19.371Z,55.20
2023-01-18T21:16:46.627Z,54.60
2023-01-18T21:19:13.692Z,54.60
2023-01-18T21:21:40.748Z,54.90
2023-01-18T21:24:08.057Z,55.00
2023-01-18T21:26:36.145Z,54.40
2023-01-18T21:29:03.934Z,54.20
2023-01-18T21:31:31.054Z,54.20
2023-01-18T21:33:58.097Z,56.80
2023-01-18T21:36:25.130Z,55.80
2023-01-18T21:38:52.283Z,55.90
2023-01-18T21:41:37.613Z,55.20
2023-01-18T21:44:23.431Z,53.60
2023-01-18T21:46:52.362Z,54.70
2023-01-18T21:52:44.526Z,52.10
2023-01-18T21:55:11.926Z,51.50
2023-01-18T21:57:38.927Z,52.70
2023-01-18T22:00:06.733Z,55.10
2023-01-18T22:02:37.097Z,54.60
2023-01-18T22:05:04.845Z,54.00
2023-01-18T22:07:34.251Z,54.10
2023-01-18T22:10:07.034Z,54.20
2023-01-18T22:12:36.028Z,54.20
2023-01-18T22:15:04.901Z,54.40
2023-01-18T22:17:32.103Z,54.30
2023-01-18T22:19:59.949Z,55.20
2023-01-18T22:22:27.056Z,53.60
2023-01-18T22:24:54.172Z,53.70
2023-01-18T22:27:21.158Z,53.70
2023-01-18T22:29:48.241Z,54.60
2023-01-18T22:32:15.261Z,53.60
2023-01-18T22:34:42.226Z,53.80
2023-01-18T22:37:09.912Z,55.00
2023-01-18T22:39:36.901Z,54.10
2023-01-18T22:42:04.193Z,56.40
2023-01-18T22:44:32.787Z,54.80
2023-01-18T22:46:59.803Z,54.90
2023-01-18T22:49:26.844Z,56.30
2023-01-18T22:51:53.765Z,56.20
2023-01-18T22:54:22.883Z,57.00
2023-01-18T22:56:49.880Z,56.00
2023-01-18T22:59:17.089Z,55.50
2023-01-18T23:01:44.170Z,54.90
2023-01-18T23:04:11.361Z,56.50
2023-01-18T23:06:48.065Z,54.40
2023-01-18T23:09:18.067Z,54.40
2023-01-18T23:11:47.540Z,54.40
2023-01-18T23:14:33.276Z,55.80
2023-01-18T23:17:18.647Z,54.30
2023-01-18T23:19:45.744Z,55.50
2023-01-18T23:22:12.763Z,55.40
2023-01-18T23:24:40.227Z,55.10
2023-01-18T23:27:10.163Z,54.50
2023-01-18T23:29:39.074Z,54.80
2023-01-18T23:32:06.519Z,53.80
2023-01-18T23:34:33.624Z,54.20
2023-01-18T23:37:00.815Z,55.70
2023-01-18T23:39:46.463Z,54.80
2023-01-18T23:42:32.815Z,55.40
2023-01-18T23:45:18.327Z,55.50
2023-01-18T23:48:03.993Z,55.50
2023-01-18T23:50:49.576Z,55.90
2023-01-18T23:53:35.022Z,55.40
2023-01-18T23:56:02.226Z,56.30
2023-01-18T23:58:29.218Z,55.60
